Milltown, Kentucky
Current Conditions -  °F | °C
As of 10:15 PM on Sunday 25 Jan 2015 (Local Time) from KGLW Reporting Station
Overcast Overcast  
Wind Chill: 34°   Ceiling: 1400
Heat Index: 38°   Visibility: 10mi
Dew Point: 38°   Wind: 5mph
Humidity: 100%   Direction: 280°W
Pressure: 29.69"   Gusts: NA
Location:  37.11°N, 85.46°W
Report Text: KGLW 260415Z AUTO 28004KT 10SM OVC014 03/03 A2969 RMK AO2 T00320032
Loading
Personal Weather Stations






























Interactive Weather Map New forecast layout! Learn more

10-Day Weather Forecast

Advertisements
Track Severe Weather on mobile